x

Neah Bay, - 6nm North Of Cape Flattery, Wa (traffic Separation Lighted Buoy) (46087) Wave Buoy

12:50am - Thu 11th Feb 2016 All times are PST. -8 hours from GMT.

  • Sig Wave height 8.5ft
  • Swell Direction
  • Peak Period 10s
  • Average Period 8s
  • Wind
    16mph, 20mph gusts
  • Sea Temp 48°f
  • 空気 Temp 48°f
  • Sea Pressure 1023.9mb
  • Neah Bay, - 6nm North Of Cape Flattery, Wa     (traffic Separation Lighted Buoy)
  • Neah Bay, - 6nm North Of Cape Flattery, Wa     (traffic Separation Lighted Buoy)

More Historic Weather Station data

Upgrade to MSW Pro to gain access to the past 30 days of data for over 8000 Wavebouys and Weather Stations around the globe.

Join Pro

Comparision Forecast

View Surf forecast
   
Thu 02/11 12:50am 8.5ft 10s 8s 16 20 mph 1023.9mb 48f 48f
12:20am 8ft 8s 8s 16 20 mph 1024.2mb 49f 49f
Wed 02/10 11:50pm 8ft 9s 9s 13 16 mph 1024.7mb 49f 49f
11:20pm 7ft 11s 8s 13 16 mph 1025mb 49f 49f
10:50pm 6.5ft 11s 8s 13 16 mph 1024.9mb 49f 49f
10:20pm 6ft 11s 8s 11 13 mph 1024.8mb 50f 49f
9:50pm 5.5ft 12s 9s 9 11 mph 1024.5mb 50f 50f
9:20pm 5.5ft 12s 8s 7 11 mph 1024.5mb 50f 50f
8:50pm 5.5ft 8s 8s 4 7 mph 1024.9mb 51f 51f
8:20pm 5.5ft 11s 8s 7
mph
1024.9mb 51f 51f
7:50pm 5ft 11s 8s 9
mph
1025mb 51f 51f
7:20pm 5ft 8s 8s 7
mph
1025.1mb 51f 51f
6:50pm 4.5ft 11s 7s 7 9 mph 1024.7mb 51f 51f
6:20pm 5ft 9s 7s 9 11 mph 1024.3mb 50f 51f
5:50pm 6ft 12s 7s 11
mph
1024.1mb 51f 51f
5:20pm 5.5ft 12s 7s 11 13 mph 1023.7mb 51f 52f
4:50pm 6.5ft 8s 7s 16 18 mph 1023.2mb 51f 52f
4:20pm 5.5ft 7s 6s 16 20 mph 1022.6mb 51f 52f
3:50pm 6ft 11s 6s 18 20 mph 1022.3mb 51f 53f
3:20pm 6.5ft 10s 6s 18 20 mph 1021.8mb 51f 52f
2:50pm 6.5ft 8s 6s 20 25 mph 1021.2mb 50f 53f
2:20pm 6.5ft 7s 6s 20 27 mph 1020.4mb 50f 52f
1:50pm 7ft 9s 6s 22 25 mph 1020.1mb 50f 52f
1:20pm 6.5ft 10s 6s 22 29 mph 1019.8mb 50f 53f
12:50pm 6ft 10s 7s 20 25 mph 1019.8mb 50f 53f
12:20pm 5ft 11s 7s 20 27 mph 1019.8mb 50f 53f
11:50am 5ft 10s 7s 18 25 mph 1019.9mb 50f 53f
11:20am 4.5ft 11s 7s 11 16 mph 1019.3mb 50f 52f
10:50am 4.5ft 11s 7s 13 16 mph 1019.1mb 50f 51f
10:20am 4.5ft 11s 8s 13 16 mph 1019.1mb 50f 51f
9:50am 4.5ft 11s 8s 11 16 mph 1018.9mb 50f 51f
9:20am 4ft 10s 8s 11 16 mph 1018.9mb 50f 51f
8:50am 4.5ft 11s 8s 9 16 mph 1018.8mb 50f 52f
8:20am 3.5ft 11s 8s 16 20 mph 1018.2mb 50f 53f
7:50am 4.5ft 11s 9s 9 13 mph 1018.7mb 50f 51f
7:20am 4.5ft 11s 9s 9 11 mph 1018.3mb 50f 49f
6:50am 4.5ft 11s 9s 11 16 mph 1018mb 49f 49f
6:20am 5ft 11s 9s 11 13 mph 1018mb 49f 49f
5:50am 5ft 11s 9s 9 11 mph 1017.8mb 49f 49f
5:20am 5ft 11s 8s 16 18 mph 1017.4mb 48f 49f
4:50am 4.5ft 11s 8s 13 16 mph 1017.4mb 48f 49f
4:20am 4.5ft 11s 8s 2 7 mph 1017.4mb 48f 52f
3:50am 5.5ft 11s 9s  -  2 mph 1017.6mb 49f 51f
3:20am 5.5ft 11s 8s 2 4 mph 1017.6mb 49f 51f
2:50am 5.5ft 11s 9s 4 7 mph 1017.9mb 49f 53f
2:20am 5.5ft 11s 9s 2 4 mph 1018.2mb 48f 52f
1:50am 5ft 11s 8s 4 7 mph 1018.4mb 48f 51f
1:20am 5ft 11s 8s 9 13 mph 1018.4mb 48f 49f
12:50am 5ft 11s 8s 7 9 mph 1018.8mb 48f 50f
12:20am 5ft 11s 9s 7 9 mph 1019.1mb 48f 50f
Tue 02/09 11:50pm 6ft 12s 10s 4 7 mph 1019.5mb 48f 49f
11:20pm 5.5ft 12s 9s 7 9 mph 1019.3mb 48f 48f
10:50pm 5ft 12s 10s 9 11 mph 1019mb 49f 49f
10:20pm 6ft 12s 10s 11 13 mph 1018.6mb 48f 50f
9:50pm 6ft 12s 10s 13 16 mph 1018.4mb 48f 49f
9:20pm 6ft 12s 10s 13 16 mph 1018.7mb 48f 49f
8:50pm 5.5ft 12s 10s 11 13 mph 1018.9mb 48f 49f
8:20pm 5.5ft 12s 10s 9 13 mph 1019.1mb 48f 49f
7:50pm 5.5ft 11s 10s 11 13 mph 1018.9mb 49f 49f
7:20pm 6ft 11s 10s 11 16 mph 1018.9mb 49f 49f
6:50pm 6.5ft 13s 10s 11 16 mph 1019.2mb 49f 50f
6:20pm 6ft 13s 10s 13 18 mph 1018.8mb 49f 50f
5:50pm 6ft 12s 10s 16 20 mph 1018.5mb 49f 50f
5:20pm 6.5ft 13s 9s 18 22 mph 1018.7mb 49f 50f
4:50pm 6.5ft 13s 9s 13 18 mph 1019.1mb 49f 51f
4:20pm 7ft 13s 9s 13 18 mph 1019mb 49f 50f
3:50pm 6.5ft 12s 9s 18 22 mph 1018.5mb 49f 50f
3:20pm 6ft 12s 8s 16 20 mph 1018.9mb 49f 50f
2:50pm 7ft 13s 9s 18 25 mph 1018.6mb 49f 50f
2:20pm 6.5ft 11s 8s 22 25 mph 1018.3mb 49f 50f
1:50pm 7ft 12s 9s 22 25 mph 1018.7mb 49f 49f
1:20pm 7ft 13s 9s 20 25 mph 1018.9mb 49f 49f
12:50pm 6ft 13s 8s 22 25 mph 1019.2mb 49f 49f
12:20pm 6ft 12s 8s 22 27 mph 1019.4mb 50f 49f
11:50am 6.5ft 11s 8s 22 27 mph 1019.4mb 50f 49f
11:20am 6ft 12s 7s 22 27 mph 1019.7mb 50f 49f
10:50am 5.5ft 13s 6s 22 27 mph 1019.9mb 50f 49f
10:20am 6.5ft 13s 7s 22 29 mph 1020.1mb 50f 49f
9:50am 7ft 14s 8s 25 29 mph 1020mb 50f 49f
9:20am 7ft 14s 8s 22 27 mph 1020mb 50f 50f
8:50am 7ft 14s 7s 22 27 mph 1020.1mb 50f 49f
8:20am 7ft 14s 7s 22 29 mph 1020.2mb 50f 50f
7:50am 7ft 14s 7s 22 27 mph 1020.3mb 50f 50f
7:20am 7ft 14s 7s 25 27 mph 1020.1mb 50f 50f
6:50am 8ft 14s 8s 25 29 mph 1020.1mb 50f 50f
6:20am 7.5ft 13s 7s 22 27 mph 1020.2mb 50f 50f
5:50am 7ft 14s 7s 25 29 mph 1020.2mb 50f 50f
5:20am 7ft 14s 8s 25 29 mph 1020.4mb 50f 50f
4:50am 7.5ft 14s 9s 25 31 mph 1020.4mb 49f 50f
4:20am 7.5ft 14s 8s 22 29 mph 1020.7mb 49f 50f
3:50am 9ft 13s 9s 25 29 mph 1020.8mb 48f 50f
3:20am 8.5ft 14s 9s 25 29 mph 1021mb 48f 51f
2:50am 8.5ft 12s 9s 25 29 mph 1021.1mb 48f 51f
2:20am 10ft 12s 9s 27 31 mph 1020.8mb 48f 51f
1:50am 9ft 15s 9s 27 34 mph 1020.9mb 48f 51f
1:20am 8.5ft 12s 8s 29 36 mph 1020.8mb 48f 51f
12:50am 9ft 13s 9s 29 34 mph 1021.3mb 48f 51f
12:20am 8.5ft 14s 8s 29 36 mph 1021.7mb 49f 50f
Mon 02/08 11:50pm 8.5ft 15s 8s 29 38 mph 1021.9mb 49f 50f
11:20pm 8ft 14s 8s 29 36 mph 1022.3mb 49f 50f
10:50pm 9ft 14s 8s 29 36 mph 1022.7mb 49f 50f
10:20pm 8.5ft 14s 8s 31 38 mph 1022.8mb 49f 50f
9:50pm 9ft 14s 9s 29 34 mph 1023.6mb 49f 51f
9:20pm 8ft 15s 8s 29 36 mph 1023.9mb 49f 50f
8:50pm 8ft 13s 8s 29 36 mph 1024.2mb 49f 50f
8:20pm 9ft 14s 9s 29 36 mph 1024.3mb 49f 50f
7:50pm 8.5ft 15s 9s 27 34 mph 1024.6mb 49f 50f
7:20pm 8.5ft 15s 9s 27 34 mph 1025mb 49f 50f
6:50pm 8ft 14s 8s 27 31 mph 1025.2mb 49f 50f
6:20pm 9ft 14s 9s 25 31 mph 1025.8mb 49f 50f
5:50pm 8ft 15s 9s 25 29 mph 1026.1mb 49f 50f
5:20pm 8.5ft 15s 9s 25 29 mph 1026.5mb 50f 50f
4:50pm 8ft 14s 8s 25 29 mph 1026.7mb 50f 50f
4:20pm 8ft 16s 9s 22 29 mph 1026.6mb 50f 50f
3:50pm 8.5ft 16s 8s 22 27 mph 1026.9mb 50f 50f
3:20pm 7.5ft 16s 8s 22 27 mph 1027mb 49f 50f
2:50pm 8ft 16s 9s 22 25 mph 1027.2mb 49f 50f
2:20pm 8ft 16s 8s 25 29 mph 1027.5mb 49f 50f
1:50pm 8ft 16s 8s 25 29 mph 1027.7mb 49f 49f
1:20pm 9ft 16s 9s 25 29 mph 1028.1mb 49f 49f
12:50pm 9ft 16s 8s 25 31 mph 1028.5mb 49f 49f
12:20pm 8.5ft 16s 8s 25 31 mph 1028.9mb 49f 49f
11:50am 9.5ft 16s 9s 25 31 mph 1029.3mb 49f 49f
11:20am 9ft 16s 9s 25 29 mph 1029.6mb 49f 49f
10:50am 8ft 17s 8s 27 31 mph 1029.7mb 49f 49f
10:20am 9.5ft 17s 10s 27 31 mph 1029.9mb 49f 49f
9:50am 8.5ft 17s 9s 25 29 mph 1030.1mb 49f 49f
9:20am 8ft 17s 9s 25 31 mph 1030.1mb 49f 49f
8:50am 8ft 17s 9s 27 31 mph 1030mb 49f 48f
8:20am 8ft 17s 9s 22 27 mph 1030.2mb 49f 49f
7:50am 8ft 17s 9s 22 27 mph 1030.2mb 49f 49f
7:20am 8.5ft 17s 9s 22 27 mph 1030.2mb 49f 49f
6:50am 8ft 17s 8s 20 25 mph 1030.6mb 49f 49f
6:20am 8.5ft 17s 9s 20 25 mph 1030.6mb 49f 49f
5:50am 8ft 17s 9s 20 27 mph 1030.6mb 49f 49f
5:20am 8ft 17s 9s 22 27 mph 1030.4mb 49f 49f
4:50am 7ft 17s 8s 25 31 mph 1030.3mb 49f 49f
4:20am 7ft 17s 9s 25 29 mph 1030.5mb 49f 49f
3:50am 7ft 17s 9s 25 29 mph 1030.6mb 49f 49f
3:20am 6ft 17s 8s 22 27 mph 1030.9mb 49f 49f
2:50am 6ft 17s 8s 25 27 mph 1030.7mb 49f 49f
2:20am 5.5ft 17s 7s 22 27 mph 1030.7mb 49f 49f
1:50am 5.5ft 17s 7s 22 27 mph 1030.8mb 49f 49f
1:20am 6.5ft 12s 7s 25 29 mph 1030.8mb 49f 49f
12:50am 6ft 11s 7s 25 29 mph 1031.1mb 49f 48f
12:20am 6.5ft 11s 7s 22 25 mph 1031.8mb 49f 48f
Sun 02/07 11:50pm 7ft 11s 7s 25 29 mph 1031.7mb 49f 48f
11:20pm 6.5ft 11s 7s 22 29 mph 1031.9mb 49f 48f
10:50pm 6.5ft 11s 7s 25 29 mph 1031.8mb 49f 48f
10:20pm 6.5ft 10s 7s 25 29 mph 1031.9mb 49f 48f
9:50pm 6ft 11s 7s 22 27 mph 1032.2mb 49f 48f
9:20pm 7ft 10s 7s 25 29 mph 1032.3mb 50f 48f
8:50pm 6.5ft 10s 7s 25 29 mph 1032.4mb 50f 48f
8:20pm 6ft 9s 7s 22 27 mph 1032.8mb 50f 48f
7:50pm 6ft 12s 7s 22 27 mph 1032.8mb 50f 48f
7:20pm 6ft 11s 6s 22 27 mph 1033.1mb 50f 48f
6:50pm 6.5ft 12s 6s 27 31 mph 1032.7mb 50f 48f
6:20pm 6.5ft 10s 6s 25 31 mph 1032.7mb 50f 48f
5:50pm 6ft 10s 6s 27 29 mph 1032.7mb 50f 48f
5:20pm 5.5ft 11s 6s 25 29 mph 1032.8mb 50f 48f
4:50pm 6ft 11s 6s 25 29 mph 1033.2mb 50f 48f
4:20pm 5.5ft 11s 6s 25 29 mph 1033.1mb 50f 48f
3:50pm 6ft 11s 6s 25 31 mph 1032.9mb 50f 48f
3:20pm 6ft 11s 6s 27 31 mph 1033.2mb 50f 47f
2:50pm 6ft 11s 6s 27 31 mph 1033.2mb 50f 47f
2:20pm 6ft 12s 6s 25 29 mph 1033.2mb 50f 47f
1:50pm 6ft 11s 6s 25 31 mph 1033.2mb 50f 47f
1:20pm 6ft 11s 6s 27 34 mph 1033.1mb 50f 47f
12:50pm 6ft 11s 6s 27 31 mph 1033.5mb 50f 47f
12:20pm 6ft 11s 6s 25 31 mph 1033.5mb 49f 47f
11:50am 6ft 12s 6s 27 31 mph 1033.5mb 49f 47f
11:20am 6ft 12s 6s 25 29 mph 1033.5mb 49f 47f
10:50am 5.5ft 10s 6s 25 29 mph 1033.3mb 49f 47f
10:20am 5.5ft 12s 6s 25 29 mph 1033.1mb 49f 47f